createdAt,value
2024-05-09T00:00:40.367Z,12.63
2024-05-09T00:03:10.040Z,11.65
2024-05-09T00:05:40.031Z,9.98
2024-05-09T00:08:07.283Z,12.98
2024-05-09T00:10:37.466Z,11.60
2024-05-09T00:13:10.760Z,13.45
2024-05-09T00:15:38.215Z,12.30
2024-05-09T00:18:06.818Z,10.48
2024-05-09T00:20:38.912Z,10.57
2024-05-09T00:23:12.209Z,11.18
2024-05-09T00:25:40.774Z,12.10
2024-05-09T00:28:07.458Z,8.68
2024-05-09T00:30:36.337Z,9.25
2024-05-09T00:33:06.019Z,9.05
2024-05-09T00:35:33.970Z,8.30
2024-05-09T00:38:00.994Z,9.32
2024-05-09T00:40:38.772Z,8.00
2024-05-09T00:43:08.027Z,8.90
2024-05-09T00:45:35.153Z,8.85
2024-05-09T00:48:07.467Z,11.00
2024-05-09T00:50:38.722Z,8.60
2024-05-09T00:53:07.618Z,9.13
2024-05-09T00:55:36.185Z,10.98
2024-05-09T00:58:03.715Z,8.70
2024-05-09T01:00:37.929Z,8.38
2024-05-09T01:03:07.775Z,8.00
2024-05-09T01:08:03.045Z,8.23
2024-05-09T01:10:34.485Z,7.53
2024-05-09T01:13:07.309Z,9.05
2024-05-09T01:15:35.174Z,10.50
2024-05-09T01:18:09.378Z,9.18
2024-05-09T01:20:41.926Z,9.48
2024-05-09T01:23:11.969Z,9.48
2024-05-09T01:28:06.168Z,8.18
2024-05-09T01:30:35.894Z,7.45
2024-05-09T01:33:06.602Z,8.18
2024-05-09T01:35:35.184Z,7.93
2024-05-09T01:38:02.116Z,7.07
2024-05-09T01:40:36.703Z,8.60
2024-05-09T01:43:06.607Z,7.22
2024-05-09T01:45:33.410Z,7.47
2024-05-09T01:48:00.906Z,8.27
2024-05-09T01:50:37.411Z,6.65
2024-05-09T01:53:08.969Z,6.32
2024-05-09T01:58:02.333Z,6.55
2024-05-09T02:00:37.383Z,7.63
2024-05-09T02:03:10.207Z,11.77
2024-05-09T02:05:37.961Z,8.45
2024-05-09T02:08:05.653Z,7.35
2024-05-09T02:10:33.446Z,7.85
2024-05-09T02:13:00.739Z,8.02
2024-05-09T02:15:27.725Z,8.73
2024-05-09T02:17:54.699Z,8.10
2024-05-09T02:22:51.200Z,7.85
2024-05-09T02:25:17.827Z,6.47
2024-05-09T02:27:44.498Z,8.57
2024-05-09T02:30:18.771Z,7.03
2024-05-09T02:32:53.019Z,9.90
2024-05-09T02:35:19.714Z,9.15
2024-05-09T02:37:46.410Z,9.63
2024-05-09T02:40:14.989Z,8.65
2024-05-09T02:42:45.015Z,8.77
2024-05-09T02:45:11.611Z,7.18
2024-05-09T02:47:38.388Z,7.65
2024-05-09T02:50:07.808Z,8.68
2024-05-09T02:52:34.679Z,6.95
2024-05-09T02:55:01.301Z,8.30
2024-05-09T02:57:27.956Z,8.27
2024-05-09T02:59:54.702Z,7.68
2024-05-09T03:02:21.510Z,9.90
2024-05-09T03:04:48.298Z,7.68
2024-05-09T03:07:14.989Z,6.22
2024-05-09T03:09:46.495Z,7.43
2024-05-09T03:12:13.328Z,8.68
2024-05-09T03:14:40.070Z,7.72
2024-05-09T03:17:06.947Z,8.13
2024-05-09T03:19:35.648Z,7.43
2024-05-09T03:22:02.400Z,7.30
2024-05-09T03:24:29.039Z,8.18
2024-05-09T03:26:55.680Z,7.20
2024-05-09T03:29:22.420Z,9.50
2024-05-09T03:31:49.142Z,8.00
2024-05-09T03:34:16.011Z,7.05
2024-05-09T03:36:45.720Z,6.43
2024-05-09T03:39:12.416Z,6.15
2024-05-09T03:41:39.330Z,6.47
2024-05-09T03:44:06.152Z,7.28
2024-05-09T03:46:37.749Z,7.15
2024-05-09T03:49:04.563Z,7.60
2024-05-09T03:51:31.299Z,8.45
2024-05-09T03:53:58.482Z,7.72
2024-05-09T03:56:25.938Z,7.10
2024-05-09T03:58:52.771Z,6.90
2024-05-09T04:01:19.534Z,7.07
2024-05-09T04:03:46.384Z,7.78
2024-05-09T04:06:20.191Z,8.07
2024-05-09T04:08:46.940Z,7.45
2024-05-09T04:11:13.656Z,8.23
2024-05-09T04:13:40.391Z,6.53
2024-05-09T04:16:09.662Z,6.97
2024-05-09T04:18:36.769Z,6.10
2024-05-09T04:21:04.476Z,7.82
2024-05-09T04:23:31.313Z,6.18
2024-05-09T04:25:58.254Z,6.22
2024-05-09T04:28:26.180Z,7.22
2024-05-09T04:30:52.888Z,6.32
2024-05-09T04:33:20.027Z,5.63
2024-05-09T04:35:47.258Z,6.97
2024-05-09T04:38:14.900Z,5.93
2024-05-09T04:40:42.211Z,6.78
2024-05-09T04:43:15.346Z,6.97
2024-05-09T04:45:42.833Z,6.20
2024-05-09T04:48:09.695Z,6.38
2024-05-09T04:50:39.017Z,6.68
2024-05-09T04:53:09.027Z,6.10
2024-05-09T04:55:37.270Z,8.45
2024-05-09T04:58:04.986Z,6.68
2024-05-09T05:00:37.094Z,7.30
2024-05-09T05:03:13.202Z,5.10
2024-05-09T05:05:42.593Z,5.78
2024-05-09T05:08:17.421Z,5.40
2024-05-09T05:10:45.806Z,7.13
2024-05-09T05:13:18.431Z,4.93
2024-05-09T05:15:46.767Z,5.75
2024-05-09T05:18:15.124Z,8.52
2024-05-09T05:20:42.537Z,5.43
2024-05-09T05:23:14.042Z,4.57
2024-05-09T05:25:43.922Z,6.50
2024-05-09T05:28:11.131Z,5.88
2024-05-09T05:30:38.665Z,4.80
2024-05-09T05:33:06.510Z,7.90
2024-05-09T05:35:34.698Z,4.90
2024-05-09T05:38:02.682Z,7.10
2024-05-09T05:40:36.395Z,5.70
2024-05-09T05:43:16.387Z,6.30
2024-05-09T05:45:43.335Z,5.72
2024-05-09T05:48:10.558Z,5.32
2024-05-09T05:50:38.478Z,5.43
2024-05-09T05:55:33.744Z,4.32
2024-05-09T05:58:02.078Z,4.07
2024-05-09T06:03:05.822Z,4.55
2024-05-09T06:05:33.017Z,6.10
2024-05-09T06:08:00.009Z,6.57
2024-05-09T06:10:36.929Z,5.50
2024-05-09T06:13:06.501Z,4.80
2024-05-09T06:15:33.179Z,4.10
2024-05-09T06:18:00.090Z,7.03
2024-05-09T06:20:34.806Z,3.50
2024-05-09T06:23:05.246Z,4.20
2024-05-09T06:25:32.422Z,4.10
2024-05-09T06:28:00.396Z,3.92
2024-05-09T06:30:36.591Z,2.65
2024-05-09T06:33:07.315Z,3.30
2024-05-09T06:35:34.451Z,3.25
2024-05-09T06:38:01.580Z,2.85
2024-05-09T06:40:36.439Z,2.60
2024-05-09T06:43:10.601Z,3.20
2024-05-09T06:45:37.358Z,2.97
2024-05-09T06:48:04.483Z,2.58
2024-05-09T06:50:36.796Z,2.30
2024-05-09T06:53:05.059Z,3.22
2024-05-09T06:55:31.813Z,2.92
2024-05-09T06:57:58.496Z,2.42
2024-05-09T07:00:34.384Z,2.15
2024-05-09T07:03:13.513Z,2.75
2024-05-09T07:05:42.642Z,2.03
2024-05-09T07:08:09.914Z,2.30
2024-05-09T07:10:37.193Z,1.75
2024-05-09T07:13:14.889Z,1.90
2024-05-09T07:15:43.219Z,2.45
2024-05-09T07:18:17.293Z,1.30
2024-05-09T07:20:45.976Z,2.15
2024-05-09T07:23:13.199Z,1.83
2024-05-09T07:25:41.158Z,2.25
2024-05-09T07:28:15.455Z,1.13
2024-05-09T07:30:42.944Z,1.50
2024-05-09T07:33:15.430Z,1.73
2024-05-09T07:35:42.306Z,1.80
2024-05-09T07:38:09.071Z,1.50
2024-05-09T07:40:37.116Z,2.03
2024-05-09T07:43:08.278Z,1.83
2024-05-09T07:52:32.652Z,1.30
2024-05-09T07:55:54.004Z,2.63
2024-05-09T07:58:20.894Z,2.83
2024-05-09T08:00:47.570Z,2.10
2024-05-09T08:03:14.403Z,2.00
2024-05-09T08:05:41.474Z,2.63
2024-05-09T08:08:08.275Z,2.75
2024-05-09T08:10:35.276Z,2.90
2024-05-09T08:13:02.152Z,3.42
2024-05-09T08:15:29.071Z,3.05
2024-05-09T08:17:56.261Z,2.67
2024-05-09T08:20:30.767Z,3.05
2024-05-09T08:23:00.510Z,5.20
2024-05-09T08:25:27.923Z,3.03
2024-05-09T08:27:54.625Z,4.57
2024-05-09T08:30:29.774Z,2.67
2024-05-09T08:33:03.680Z,2.55
2024-05-09T08:35:30.385Z,2.25
2024-05-09T08:37:58.154Z,3.17
2024-05-09T08:40:32.916Z,3.50
2024-05-09T08:43:04.368Z,2.00
2024-05-09T08:45:33.365Z,2.40
2024-05-09T08:48:04.049Z,2.55
2024-05-09T08:50:37.877Z,2.15
2024-05-09T08:53:06.263Z,1.90
2024-05-09T08:55:33.073Z,2.17
2024-05-09T08:58:02.684Z,1.50
2024-05-09T09:00:36.818Z,1.85
2024-05-09T09:03:09.105Z,1.50
2024-05-09T09:05:38.808Z,1.40
2024-05-09T09:08:08.965Z,1.80
2024-05-09T09:10:39.565Z,1.50
2024-05-09T09:13:09.446Z,1.05
2024-05-09T09:15:49.843Z,2.95
2024-05-09T09:18:17.650Z,1.10
2024-05-09T09:20:45.169Z,1.52
2024-05-09T09:23:11.883Z,2.03
2024-05-09T09:25:42.008Z,2.33
2024-05-09T09:28:09.560Z,3.03
2024-05-09T09:30:40.451Z,2.97
2024-05-09T09:33:09.367Z,2.00
2024-05-09T09:35:36.396Z,3.00
2024-05-09T09:38:04.475Z,4.22
2024-05-09T09:40:39.093Z,2.63
2024-05-09T09:43:18.628Z,2.28
2024-05-09T09:45:46.887Z,3.10
2024-05-09T09:48:15.500Z,1.88
2024-05-09T09:50:42.491Z,2.42
2024-05-09T09:53:09.991Z,2.15
2024-05-09T09:55:37.546Z,2.33
2024-05-09T09:58:08.787Z,2.03
2024-05-09T10:00:37.914Z,1.92
2024-05-09T10:03:05.437Z,2.58
2024-05-09T10:05:33.746Z,1.70
2024-05-09T10:08:06.635Z,2.42
2024-05-09T10:10:35.293Z,3.63
2024-05-09T10:13:07.255Z,3.20
2024-05-09T10:15:45.372Z,2.63
2024-05-09T10:18:12.381Z,2.70
2024-05-09T10:20:40.773Z,1.80
2024-05-09T10:23:23.674Z,1.70
2024-05-09T10:26:01.119Z,2.50
2024-05-09T10:28:29.109Z,6.20
2024-05-09T10:33:49.071Z,1.75
2024-05-09T10:38:53.690Z,7.40
2024-05-09T10:43:48.908Z,28.05
2024-05-09T10:46:16.497Z,2.63
2024-05-09T10:48:44.306Z,2.42
2024-05-09T10:51:11.787Z,2.17
2024-05-09T10:53:42.262Z,1.30
2024-05-09T10:56:09.727Z,4.30
2024-05-09T10:58:36.637Z,1.83
2024-05-09T11:01:06.751Z,1.30
2024-05-09T11:03:35.154Z,1.33
2024-05-09T11:06:02.455Z,1.38
2024-05-09T11:08:31.796Z,1.85
2024-05-09T11:10:59.696Z,1.30
2024-05-09T11:15:56.382Z,1.25
2024-05-09T11:18:25.602Z,1.90
2024-05-09T11:20:54.571Z,2.10
2024-05-09T11:25:57.826Z,1.23
2024-05-09T11:28:26.792Z,2.88
2024-05-09T11:31:06.407Z,2.92
2024-05-09T11:33:36.859Z,3.78
2024-05-09T11:36:04.328Z,2.55
2024-05-09T11:38:31.356Z,2.40
2024-05-09T11:40:58.058Z,2.72
2024-05-09T11:43:24.754Z,2.72
2024-05-09T11:45:51.830Z,2.10
2024-05-09T11:48:18.666Z,2.38
2024-05-09T11:50:45.411Z,3.75
2024-05-09T11:53:12.384Z,2.13
2024-05-09T11:55:39.000Z,2.08
2024-05-09T11:58:06.770Z,1.60
2024-05-09T12:03:05.834Z,1.58
2024-05-09T12:05:33.764Z,2.58
2024-05-09T12:08:01.217Z,1.50
2024-05-09T12:10:33.345Z,1.85
2024-05-09T12:15:30.227Z,2.20
2024-05-09T12:17:59.113Z,2.22
2024-05-09T12:20:35.123Z,2.85
2024-05-09T12:23:05.203Z,2.88
2024-05-09T12:25:31.931Z,2.75
2024-05-09T12:27:58.799Z,6.55
2024-05-09T12:30:34.980Z,2.45
2024-05-09T12:33:05.953Z,4.15
2024-05-09T12:35:33.002Z,1.90
2024-05-09T12:37:59.787Z,2.55
2024-05-09T12:40:34.596Z,2.17
2024-05-09T12:43:05.082Z,1.73
2024-05-09T12:45:32.531Z,1.95
2024-05-09T12:47:59.610Z,2.05
2024-05-09T12:50:32.360Z,2.15
2024-05-09T12:53:01.600Z,1.92
2024-05-09T12:58:04.784Z,1.67
2024-05-09T13:00:34.122Z,2.47
2024-05-09T13:03:01.644Z,2.22
2024-05-09T13:05:28.957Z,2.42
2024-05-09T13:07:56.930Z,4.25
2024-05-09T13:10:31.124Z,2.45
2024-05-09T13:13:01.017Z,3.17
2024-05-09T13:15:29.841Z,2.78
2024-05-09T13:18:00.291Z,3.97
2024-05-09T13:20:33.227Z,2.58
2024-05-09T13:23:03.958Z,2.80
2024-05-09T13:25:30.802Z,2.15
2024-05-09T13:27:57.823Z,2.60
2024-05-09T13:30:30.183Z,3.92
2024-05-09T13:35:35.187Z,3.75
2024-05-09T13:38:02.955Z,4.10
2024-05-09T13:40:34.190Z,3.88
2024-05-09T13:43:03.682Z,3.35
2024-05-09T13:45:30.657Z,2.83
2024-05-09T13:47:57.705Z,4.32
2024-05-09T13:50:33.114Z,2.83
2024-05-09T13:53:02.846Z,2.20
2024-05-09T13:55:29.593Z,3.50
2024-05-09T13:57:56.695Z,4.18
2024-05-09T14:00:37.833Z,2.55
2024-05-09T14:03:10.548Z,2.88
2024-05-09T14:05:37.556Z,2.08
2024-05-09T14:08:04.736Z,2.10
2024-05-09T14:10:32.465Z,2.13
2024-05-09T14:13:01.156Z,3.05
2024-05-09T14:15:28.199Z,3.42
2024-05-09T14:17:55.676Z,2.63
2024-05-09T14:20:30.687Z,3.60
2024-05-09T14:23:00.806Z,2.88
2024-05-09T14:25:30.026Z,2.40
2024-05-09T14:28:00.126Z,3.20
2024-05-09T14:30:34.744Z,2.85
2024-05-09T14:33:06.269Z,2.80
2024-05-09T14:35:34.080Z,4.47
2024-05-09T14:38:00.826Z,3.00
2024-05-09T14:40:37.179Z,4.88
2024-05-09T14:43:09.983Z,3.83
2024-05-09T14:45:36.826Z,3.63
2024-05-09T14:48:04.209Z,4.03
2024-05-09T14:50:36.594Z,3.75
2024-05-09T14:53:07.363Z,3.97
2024-05-09T14:55:37.382Z,5.55
2024-05-09T14:58:08.997Z,5.25
2024-05-09T15:00:41.300Z,4.60
2024-05-09T15:03:11.293Z,4.95
2024-05-09T15:05:38.110Z,3.85
2024-05-09T15:08:08.691Z,3.28
2024-05-09T15:10:36.962Z,4.05
2024-05-09T15:13:06.033Z,4.00
2024-05-09T15:15:34.047Z,3.60
2024-05-09T15:18:00.931Z,3.63
2024-05-09T15:20:34.382Z,3.97
2024-05-09T15:23:03.804Z,5.65
2024-05-09T15:25:30.997Z,4.88
2024-05-09T15:27:57.934Z,4.47
2024-05-09T15:30:30.735Z,5.15
2024-05-09T15:33:01.157Z,4.00
2024-05-09T15:35:28.249Z,3.83
2024-05-09T15:37:55.348Z,3.80
2024-05-09T15:40:31.304Z,3.63
2024-05-09T15:43:05.772Z,3.47
2024-05-09T15:48:00.220Z,4.50
2024-05-09T15:50:35.960Z,4.68
2024-05-09T15:53:07.708Z,4.93
2024-05-09T15:55:35.324Z,3.80
2024-05-09T15:58:03.685Z,4.45
2024-05-09T16:00:37.850Z,3.17
2024-05-09T16:03:08.914Z,4.40
2024-05-09T16:05:36.434Z,3.40
2024-05-09T16:08:03.611Z,3.58
2024-05-09T16:10:33.070Z,4.43
2024-05-09T16:13:02.296Z,3.88
2024-05-09T16:15:29.621Z,4.10
2024-05-09T16:17:56.592Z,4.07
2024-05-09T16:22:55.798Z,4.15
2024-05-09T16:25:22.433Z,4.03
2024-05-09T16:27:51.203Z,4.30
2024-05-09T16:30:24.842Z,4.20
2024-05-09T16:32:58.523Z,4.47
2024-05-09T16:35:25.185Z,5.07
2024-05-09T16:37:51.871Z,4.00
2024-05-09T16:40:25.691Z,5.25
2024-05-09T16:43:03.644Z,5.13
2024-05-09T16:45:30.608Z,6.10
2024-05-09T16:48:00.412Z,4.90
2024-05-09T16:50:32.479Z,4.65
2024-05-09T16:53:01.835Z,5.25
2024-05-09T16:55:28.851Z,5.22
2024-05-09T16:57:56.968Z,6.13
2024-05-09T17:00:35.187Z,4.65
2024-05-09T17:03:08.864Z,5.38
2024-05-09T17:05:36.414Z,4.35
2024-05-09T17:08:03.773Z,4.18
2024-05-09T17:10:33.717Z,4.72
2024-05-09T17:13:03.839Z,5.57
2024-05-09T17:15:32.489Z,8.50
2024-05-09T17:17:59.474Z,5.25
2024-05-09T17:20:32.624Z,9.63
2024-05-09T17:23:03.228Z,5.50
2024-05-09T17:25:29.983Z,5.22
2024-05-09T17:27:57.284Z,5.40
2024-05-09T17:30:29.334Z,6.28
2024-05-09T17:33:03.050Z,5.40
2024-05-09T17:35:29.961Z,4.68
2024-05-09T17:37:56.830Z,4.80
2024-05-09T17:42:53.397Z,4.80
2024-05-09T17:45:20.669Z,4.93
2024-05-09T17:47:47.729Z,5.20
2024-05-09T17:50:21.017Z,5.28
2024-05-09T17:52:53.834Z,5.68
2024-05-09T17:55:21.326Z,5.25
2024-05-09T17:57:48.509Z,5.07
2024-05-09T18:00:24.594Z,4.75
2024-05-09T18:03:00.622Z,6.57
2024-05-09T18:05:29.085Z,4.80
2024-05-09T18:07:57.085Z,4.95
2024-05-09T18:10:29.984Z,5.13
2024-05-09T18:13:02.568Z,5.00
2024-05-09T18:15:29.230Z,4.80
2024-05-09T18:17:56.107Z,4.95
2024-05-09T18:20:32.749Z,5.78
2024-05-09T18:23:07.619Z,5.60
2024-05-09T18:25:34.471Z,5.05
2024-05-09T18:28:05.462Z,4.65
2024-05-09T18:30:35.414Z,4.97
2024-05-09T18:33:05.360Z,5.07
2024-05-09T18:35:33.416Z,4.68
2024-05-09T18:38:00.380Z,5.75
2024-05-09T18:40:33.659Z,4.35
2024-05-09T18:43:05.175Z,5.57
2024-05-09T18:45:33.089Z,5.78
2024-05-09T18:47:59.851Z,6.28
2024-05-09T18:50:35.272Z,5.95
2024-05-09T18:53:06.207Z,7.60
2024-05-09T19:00:33.999Z,5.70
2024-05-09T19:03:05.978Z,5.95
2024-05-09T19:05:35.307Z,5.18
2024-05-09T19:08:02.846Z,6.25
2024-05-09T19:10:34.258Z,6.65
2024-05-09T19:13:06.507Z,5.88
2024-05-09T19:15:37.402Z,6.13
2024-05-09T19:18:04.490Z,5.60
2024-05-09T19:20:34.552Z,6.07
2024-05-09T19:23:02.851Z,7.80
2024-05-09T19:25:29.579Z,5.38
2024-05-09T19:27:56.266Z,5.47
2024-05-09T19:30:30.431Z,7.00
2024-05-09T19:33:05.835Z,6.40
2024-05-09T19:37:59.511Z,7.38
2024-05-09T19:40:31.353Z,5.82
2024-05-09T19:43:01.442Z,5.05
2024-05-09T19:45:28.868Z,6.25
2024-05-09T19:47:56.245Z,6.57
2024-05-09T19:50:31.609Z,5.82
2024-05-09T19:53:04.863Z,8.40
2024-05-09T19:55:31.487Z,6.03
2024-05-09T19:57:59.055Z,6.20
2024-05-09T20:00:32.786Z,6.13
2024-05-09T20:03:03.004Z,5.25
2024-05-09T20:05:33.102Z,6.38
2024-05-09T20:08:00.128Z,6.30
2024-05-09T20:10:31.797Z,5.55
2024-05-09T20:13:00.770Z,6.32
2024-05-09T20:15:27.492Z,5.63
2024-05-09T20:17:54.809Z,5.75
2024-05-09T20:20:32.191Z,5.13
2024-05-09T20:23:04.039Z,6.57
2024-05-09T20:25:30.719Z,6.28
2024-05-09T20:27:57.542Z,5.60
2024-05-09T20:30:31.276Z,5.85
2024-05-09T20:33:00.689Z,5.28
2024-05-09T20:35:30.584Z,5.85
2024-05-09T20:37:57.397Z,7.43
2024-05-09T20:40:29.240Z,5.65
2024-05-09T20:43:00.564Z,5.47
2024-05-09T20:45:27.310Z,5.72
2024-05-09T20:47:54.176Z,7.32
2024-05-09T20:50:28.851Z,6.30
2024-05-09T20:53:03.276Z,5.43
2024-05-09T20:55:30.361Z,8.20
2024-05-09T20:57:57.409Z,6.28
2024-05-09T21:00:33.793Z,7.53
2024-05-09T21:03:06.628Z,6.00
2024-05-09T21:05:34.656Z,8.68
2024-05-09T21:10:32.722Z,7.40
2024-05-09T21:13:01.159Z,8.85
2024-05-09T21:15:28.139Z,8.80
2024-05-09T21:17:55.187Z,7.47
2024-05-09T21:20:28.742Z,6.57
2024-05-09T21:22:58.354Z,6.18
2024-05-09T21:25:25.058Z,6.95
2024-05-09T21:27:51.968Z,7.30
2024-05-09T21:30:27.972Z,8.57
2024-05-09T21:33:04.813Z,7.63
2024-05-09T21:35:31.796Z,7.90
2024-05-09T21:37:58.459Z,7.47
2024-05-09T21:40:31.619Z,6.57
2024-05-09T21:43:01.792Z,6.65
2024-05-09T21:45:28.517Z,6.50
2024-05-09T21:47:55.393Z,6.22
2024-05-09T21:50:28.741Z,8.80
2024-05-09T21:53:03.705Z,6.97
2024-05-09T21:55:30.344Z,7.35
2024-05-09T21:57:57.144Z,6.72
2024-05-09T22:00:32.072Z,7.03
2024-05-09T22:03:03.527Z,6.72
2024-05-09T22:05:30.907Z,6.75
2024-05-09T22:07:57.736Z,7.38
2024-05-09T22:10:30.821Z,6.47
2024-05-09T22:13:01.373Z,7.22
2024-05-09T22:15:28.223Z,6.18
2024-05-09T22:17:57.110Z,6.18
2024-05-09T22:20:33.147Z,6.43
2024-05-09T22:23:04.207Z,6.18
2024-05-09T22:25:32.139Z,7.55
2024-05-09T22:28:00.111Z,8.27
2024-05-09T22:30:35.116Z,7.35
2024-05-09T22:33:06.339Z,6.60
2024-05-09T22:38:00.251Z,6.15
2024-05-09T22:40:38.381Z,8.48
2024-05-09T22:43:13.612Z,6.90
2024-05-09T22:45:40.448Z,6.72
2024-05-09T22:48:08.454Z,7.03
2024-05-09T22:50:35.418Z,5.97
2024-05-09T22:53:02.146Z,7.50
2024-05-09T22:55:29.099Z,6.75
2024-05-09T22:57:56.063Z,6.50
2024-05-09T23:00:30.739Z,7.95
2024-05-09T23:03:00.433Z,7.65
2024-05-09T23:05:27.581Z,8.40
2024-05-09T23:07:54.366Z,6.47
2024-05-09T23:10:28.161Z,6.57
2024-05-09T23:13:01.508Z,6.28
2024-05-09T23:15:28.525Z,7.30
2024-05-09T23:17:55.548Z,7.35
2024-05-09T23:20:33.098Z,6.53
2024-05-09T23:23:04.957Z,5.40
2024-05-09T23:25:31.642Z,7.18
2024-05-09T23:27:58.396Z,6.65
2024-05-09T23:30:34.233Z,7.13
2024-05-09T23:33:06.007Z,7.50
2024-05-09T23:35:32.805Z,7.28
2024-05-09T23:37:59.621Z,7.68
2024-05-09T23:40:37.038Z,7.65
2024-05-09T23:43:07.220Z,7.70
2024-05-09T23:45:34.229Z,7.15
2024-05-09T23:48:01.564Z,7.43
2024-05-09T23:50:34.771Z,6.57
2024-05-09T23:53:05.015Z,8.38
2024-05-09T23:55:32.630Z,7.70
2024-05-09T23:57:59.581Z,7.82
